Time;durP1;ratioP1;P1;durP2;ratioP2;P2;SDS_P1;SDS_P2;PMS_P1;PMS_P2;Temp;Humidity;BMP_temperature;BMP_pressure;BME280_temperature;BME280_humidity;BME280_pressure;Samples;Min_cycle;Max_cycle;Signal;HPM_P1;HPM_P2
2021/05/01 00:01:11;;;;;;;31.37;24.33;;;7.90;99.90;;;;;;5049547;28;20202;-52
2021/05/01 00:03:37;;;;;;;32.27;24.80;;;7.40;99.90;;;;;;5050182;28;20576;-53
2021/05/01 00:06:03;;;;;;;37.80;27.33;;;8.00;99.90;;;;;;5049959;28;20182;-52
2021/05/01 00:08:29;;;;;;;36.80;26.50;;;8.10;99.90;;;;;;5050143;28;20283;-52
2021/05/01 00:11:03;;;;;;;33.20;24.97;;;7.90;99.90;;;;;;5050395;28;20932;-52
2021/05/01 00:13:33;;;;;;;31.35;24.52;;;7.90;99.90;;;;;;5049721;28;21050;-52
2021/05/01 00:15:59;;;;;;;34.20;25.60;;;7.90;99.90;;;;;;5046457;28;20669;-51
2021/05/01 00:18:25;;;;;;;35.33;26.45;;;8.10;99.90;;;;;;5048061;28;20515;-52
2021/05/01 00:20:51;;;;;;;34.55;26.42;;;8.10;99.90;;;;;;5046982;28;20210;-53
2021/05/01 00:23:17;;;;;;;32.97;25.13;;;7.60;99.90;;;;;;5049415;28;20256;-51
2021/05/01 00:25:42;;;;;;;35.43;26.27;;;8.00;99.90;;;;;;5049909;28;20227;-53
2021/05/01 00:28:10;;;;;;;33.90;25.57;;;8.10;99.90;;;;;;5047951;28;20197;-52
2021/05/01 00:30:36;;;;;;;35.42;26.45;;;8.00;99.90;;;;;;5049566;28;20334;-52
2021/05/01 00:33:02;;;;;;;35.03;27.30;;;7.80;99.90;;;;;;5049622;28;20222;-53
2021/05/01 00:35:27;;;;;;;33.90;26.27;;;8.10;99.90;;;;;;5045349;28;20185;-52
2021/05/01 00:37:53;;;;;;;28.97;23.20;;;8.10;99.90;;;;;;5049547;28;20656;-52
2021/05/01 00:40:19;;;;;;;33.10;26.27;;;8.10;99.90;;;;;;5048625;28;20216;-52
2021/05/01 00:42:45;;;;;;;31.97;24.53;;;8.20;99.90;;;;;;5049760;28;20231;-52
2021/05/01 00:45:11;;;;;;;32.00;25.70;;;8.20;99.90;;;;;;5048975;28;20188;-52
2021/05/01 00:47:36;;;;;;;32.47;24.37;;;8.10;99.90;;;;;;5046878;28;20182;-52
2021/05/01 00:50:04;;;;;;;31.93;24.70;;;8.10;99.90;;;;;;5050204;28;20446;-51
2021/05/01 00:52:31;;;;;;;31.73;23.75;;;8.50;99.90;;;;;;5050545;28;20722;-52
2021/05/01 00:54:57;;;;;;;28.33;23.75;;;8.30;99.90;;;;;;5050062;28;20227;-50
2021/05/01 00:57:22;;;;;;;29.30;25.20;;;8.70;99.90;;;;;;5051123;28;20590;-51
2021/05/01 00:59:49;;;;;;;32.87;24.20;;;8.20;99.90;;;;;;5050007;28;20209;-51
2021/05/01 01:02:21;;;;;;;30.30;23.83;;;8.20;99.90;;;;;;5050019;28;20213;-51
2021/05/01 01:04:46;;;;;;;35.60;25.80;;;8.00;99.90;;;;;;5045472;28;20181;-52
2021/05/01 01:07:12;;;;;;;31.30;24.40;;;8.00;99.90;;;;;;5052847;28;20335;-52
2021/05/01 01:09:37;;;;;;;34.17;24.70;;;8.10;99.90;;;;;;5046742;28;20223;-53
2021/05/01 01:12:07;;;;;;;30.33;24.20;;;8.00;99.90;;;;;;5048572;28;20229;-51
2021/05/01 01:14:32;;;;;;;34.97;25.75;;;8.30;99.90;;;;;;5049685;28;20188;-51
2021/05/01 01:16:58;;;;;;;32.90;25.70;;;8.50;99.90;;;;;;5045723;28;20276;-52
2021/05/01 01:19:23;;;;;;;30.77;24.87;;;8.30;99.90;;;;;;5045142;28;20178;-52
2021/05/01 01:21:50;;;;;;;34.83;24.73;;;8.40;99.90;;;;;;5049316;28;20186;-51
2021/05/01 01:24:17;;;;;;;37.10;27.35;;;8.20;99.90;;;;;;5044528;28;20221;-52
2021/05/01 01:26:43;;;;;;;36.33;26.30;;;8.50;99.90;;;;;;5048973;28;20191;-50
2021/05/01 01:29:13;;;;;;;32.67;26.15;;;8.20;99.90;;;;;;5048386;28;20208;-51
2021/05/01 01:31:39;;;;;;;31.20;24.35;;;8.20;99.90;;;;;;5046178;28;20194;-51
2021/05/01 01:34:05;;;;;;;31.23;25.38;;;8.00;99.90;;;;;;5048410;28;20185;-52
2021/05/01 01:36:31;;;;;;;32.10;23.83;;;8.20;99.90;;;;;;5048565;28;20194;-52
2021/05/01 01:38:57;;;;;;;36.92;24.83;;;8.00;99.90;;;;;;5049206;28;20201;-51
2021/05/01 01:41:23;;;;;;;33.30;25.40;;;8.30;99.90;;;;;;5047718;28;20618;-53
2021/05/01 01:43:49;;;;;;;31.98;26.25;;;8.50;99.90;;;;;;5048353;28;20206;-52
2021/05/01 01:46:14;;;;;;;31.20;24.10;;;8.30;99.90;;;;;;5045339;28;20187;-53
2021/05/01 01:48:40;;;;;;;33.00;25.37;;;8.40;99.90;;;;;;5046383;28;20704;-51
2021/05/01 01:51:06;;;;;;;29.37;24.00;;;8.30;99.90;;;;;;5043318;28;20192;-51
2021/05/01 01:53:32;;;;;;;35.73;27.50;;;8.30;99.90;;;;;;5047900;28;20232;-51
2021/05/01 01:55:58;;;;;;;34.63;27.13;;;8.00;99.90;;;;;;5044916;28;20232;-52
2021/05/01 01:58:23;;;;;;;35.05;26.70;;;8.00;99.90;;;;;;5043712;28;20189;-52
2021/05/01 02:00:51;;;;;;;29.33;24.53;;;8.20;99.90;;;;;;5044496;28;20206;-52
2021/05/01 02:03:17;;;;;;;30.52;24.67;;;8.50;99.90;;;;;;5046833;28;20821;-52
2021/05/01 02:05:46;;;;;;;31.35;25.25;;;8.30;99.90;;;;;;5044564;28;20178;-53
2021/05/01 02:08:13;;;;;;;34.22;25.83;;;8.30;99.90;;;;;;5047277;28;20189;-52
2021/05/01 02:10:40;;;;;;;34.45;24.70;;;8.50;99.90;;;;;;5044366;28;20277;-51
2021/05/01 02:13:06;;;;;;;29.85;22.98;;;8.50;99.90;;;;;;5047306;28;20237;-53
2021/05/01 02:15:32;;;;;;;31.63;24.02;;;8.70;99.90;;;;;;5047599;28;20691;-52
2021/05/01 02:17:59;;;;;;;31.50;24.90;;;8.60;99.90;;;;;;5049249;28;20185;-53
2021/05/01 02:20:34;;;;;;;33.47;24.77;;;8.80;99.90;;;;;;5047738;28;20201;-52
2021/05/01 02:23:00;;;;;;;33.42;25.45;;;8.60;99.90;;;;;;5032402;28;20244;-50
2021/05/01 02:25:27;;;;;;;29.95;23.67;;;8.60;99.90;;;;;;5043337;28;20193;-50
2021/05/01 02:27:53;;;;;;;30.88;24.65;;;8.70;99.90;;;;;;5044468;28;20512;-50
2021/05/01 02:30:26;;;;;;;30.95;23.70;;;8.40;99.90;;;;;;5045631;28;20239;-50
2021/05/01 02:32:53;;;;;;;29.42;24.05;;;8.80;99.90;;;;;;5047759;28;20217;-50
2021/05/01 02:35:21;;;;;;;31.48;24.83;;;8.50;99.90;;;;;;5046928;28;20561;-50
2021/05/01 02:37:48;;;;;;;27.75;22.48;;;8.70;99.90;;;;;;5044701;28;20233;-50
2021/05/01 02:40:15;;;;;;;33.10;27.25;;;8.30;99.90;;;;;;5047118;28;20220;-49
2021/05/01 02:42:42;;;;;;;34.40;26.08;;;8.50;99.90;;;;;;5044524;28;20194;-51
2021/05/01 02:45:10;;;;;;;34.15;24.98;;;8.20;99.90;;;;;;5044654;28;20617;-49
2021/05/01 02:47:37;;;;;;;33.15;24.35;;;8.50;99.90;;;;;;5047123;28;21347;-49
2021/05/01 02:50:05;;;;;;;32.67;26.63;;;8.50;99.90;;;;;;5046880;28;20217;-51
2021/05/01 02:52:30;;;;;;;31.42;24.10;;;8.70;99.90;;;;;;5044265;28;20289;-51
2021/05/01 02:54:56;;;;;;;37.50;26.73;;;8.70;99.90;;;;;;5045509;28;20285;-50
2021/05/01 02:57:22;;;;;;;35.47;26.23;;;8.70;99.90;;;;;;5047404;28;20219;-50
2021/05/01 02:59:47;;;;;;;35.50;26.30;;;7.80;99.90;;;;;;5046834;28;20608;-51
2021/05/01 03:02:13;;;;;;;34.67;27.60;;;8.50;99.90;;;;;;5047052;28;20201;-52
2021/05/01 03:04:39;;;;;;;37.37;27.77;;;8.40;99.90;;;;;;5046750;28;20637;-51
2021/05/01 03:07:04;;;;;;;35.90;26.53;;;8.40;99.90;;;;;;5046826;28;20185;-51
2021/05/01 03:09:30;;;;;;;38.30;28.80;;;8.40;99.90;;;;;;5043810;28;20186;-52
2021/05/01 03:11:56;;;;;;;39.97;27.70;;;8.60;99.90;;;;;;5046893;28;20177;-51
2021/05/01 03:14:25;;;;;;;39.83;30.10;;;8.50;99.90;;;;;;5046754;28;20181;-51
2021/05/01 03:16:51;;;;;;;38.72;27.38;;;8.60;99.90;;;;;;5046323;28;20583;-51
2021/05/01 03:19:16;;;;;;;37.00;27.63;;;8.40;99.90;;;;;;5046470;28;20276;-50
2021/05/01 03:21:42;;;;;;;38.10;29.80;;;8.70;99.90;;;;;;5047264;28;20439;-52
2021/05/01 03:24:09;;;;;;;42.03;31.13;;;8.80;99.90;;;;;;5046473;28;20182;-52
2021/05/01 03:26:35;;;;;;;42.53;31.00;;;8.90;99.90;;;;;;5043972;28;20175;-52
2021/05/01 03:29:00;;;;;;;40.57;30.90;;;8.90;99.90;;;;;;5040718;28;20200;-50
2021/05/01 03:31:26;;;;;;;43.30;31.97;;;8.90;99.90;;;;;;5046670;28;20193;-51
2021/05/01 03:33:51;;;;;;;39.93;30.27;;;9.00;99.90;;;;;;5046379;28;20216;-52
2021/05/01 03:36:17;;;;;;;40.60;30.30;;;8.90;99.90;;;;;;5044514;28;20178;-51
2021/05/01 03:38:43;;;;;;;40.03;30.70;;;9.10;99.90;;;;;;5046488;28;20596;-53
2021/05/01 03:41:08;;;;;;;38.17;29.70;;;9.00;99.90;;;;;;5046665;28;20345;-51
2021/05/01 03:43:34;;;;;;;40.90;31.63;;;9.00;99.90;;;;;;5047754;28;20205;-52
2021/05/01 03:46:00;;;;;;;39.80;29.87;;;8.90;99.90;;;;;;5043186;28;20182;-52
2021/05/01 03:48:27;;;;;;;42.60;30.15;;;8.70;99.90;;;;;;5044441;28;20188;-51
2021/05/01 03:50:52;;;;;;;29.60;25.55;;;9.20;99.90;;;;;;5043252;28;20190;-51
2021/05/01 03:53:18;;;;;;;35.03;26.20;;;8.80;99.90;;;;;;5046084;28;20621;-50
2021/05/01 03:55:44;;;;;;;37.50;27.08;;;8.40;99.90;;;;;;5046741;28;20519;-52
2021/05/01 03:58:10;;;;;;;36.50;28.10;;;8.90;99.90;;;;;;5045335;28;20205;-50
2021/05/01 04:00:35;;;;;;;34.90;27.00;;;8.80;99.90;;;;;;5047792;28;20221;-52
2021/05/01 04:03:01;;;;;;;39.10;28.43;;;8.60;99.90;;;;;;5046815;28;20219;-52
2021/05/01 04:05:27;;;;;;;36.43;27.73;;;8.50;99.90;;;;;;5051505;28;20443;-51
2021/05/01 04:07:52;;;;;;;34.57;27.10;;;8.50;99.90;;;;;;5051349;28;20596;-51
2021/05/01 04:10:18;;;;;;;34.93;26.80;;;8.60;99.90;;;;;;5050481;28;20186;-50
2021/05/01 04:12:43;;;;;;;35.93;27.97;;;8.50;99.90;;;;;;5056613;28;20639;-52
2021/05/01 04:15:09;;;;;;;38.67;29.20;;;8.60;99.90;;;;;;5045066;28;20186;-51
2021/05/01 04:17:35;;;;;;;38.87;30.03;;;8.70;99.90;;;;;;5047700;28;20675;-52
2021/05/01 04:20:01;;;;;;;47.30;29.90;;;8.30;99.90;;;;;;5046608;28;20471;-52
2021/05/01 04:22:27;;;;;;;36.13;28.30;;;8.70;99.90;;;;;;5048928;28;20202;-51
2021/05/01 04:24:52;;;;;;;40.63;30.97;;;8.90;99.90;;;;;;5048941;28;20429;-53
2021/05/01 04:27:19;;;;;;;38.97;30.20;;;9.10;99.90;;;;;;5041793;28;20179;-51
2021/05/01 04:29:45;;;;;;;39.97;29.77;;;8.60;99.90;;;;;;5047953;28;20194;-51
2021/05/01 04:32:10;;;;;;;35.23;26.60;;;8.50;99.90;;;;;;5049872;28;20868;-51
2021/05/01 04:34:36;;;;;;;38.80;27.77;;;8.70;99.90;;;;;;5049827;28;20933;-53
2021/05/01 04:37:01;;;;;;;33.40;26.07;;;8.90;99.90;;;;;;5043620;28;20189;-51
2021/05/01 04:39:27;;;;;;;36.30;26.07;;;9.20;99.90;;;;;;5046183;28;20274;-51
2021/05/01 04:41:53;;;;;;;37.43;27.17;;;9.10;99.90;;;;;;5049456;28;20181;-50
2021/05/01 04:44:20;;;;;;;38.88;29.42;;;9.10;99.90;;;;;;5046379;28;20175;-52
2021/05/01 04:46:55;;;;;;;40.72;29.92;;;9.00;99.90;;;;;;5047309;28;20193;-50
2021/05/01 04:49:21;;;;;;;41.90;31.75;;;9.30;99.90;;;;;;5042969;28;20197;-51
2021/05/01 04:51:46;;;;;;;38.60;30.03;;;9.10;99.90;;;;;;5049431;28;20649;-51
2021/05/01 04:54:12;;;;;;;40.20;29.10;;;9.10;99.90;;;;;;5050721;28;20185;-51
2021/05/01 04:56:38;;;;;;;43.40;32.33;;;9.20;99.90;;;;;;5042668;28;20187;-51
2021/05/01 04:59:05;;;;;;;40.58;29.85;;;9.30;99.90;;;;;;5043148;28;20415;-51
2021/05/01 05:01:31;;;;;;;41.72;29.83;;;9.20;99.90;;;;;;5040811;28;20293;-51
2021/05/01 05:03:57;;;;;;;42.73;32.00;;;9.40;99.90;;;;;;5042851;28;20344;-52
2021/05/01 05:06:22;;;;;;;39.40;29.77;;;9.20;99.90;;;;;;5044970;28;20407;-51
2021/05/01 05:08:48;;;;;;;37.37;29.53;;;9.30;99.90;;;;;;5046136;28;20746;-52
2021/05/01 05:11:14;;;;;;;40.80;30.10;;;9.30;99.90;;;;;;5048545;28;20200;-51
2021/05/01 05:13:39;;;;;;;38.17;28.97;;;9.20;99.90;;;;;;5041956;28;20248;-50
2021/05/01 05:16:05;;;;;;;37.63;27.43;;;9.60;99.90;;;;;;5045349;28;20263;-52
2021/05/01 05:18:30;;;;;;;34.10;26.43;;;9.50;99.90;;;;;;5047921;28;20186;-51
2021/05/01 05:20:58;;;;;;;39.10;28.60;;;9.60;99.90;;;;;;5046248;28;20355;-52
2021/05/01 05:23:23;;;;;;;36.85;26.90;;;9.40;99.90;;;;;;5034053;28;20202;-52
2021/05/01 05:25:49;;;;;;;36.70;27.50;;;9.40;99.90;;;;;;5046388;28;20619;-51
2021/05/01 05:28:15;;;;;;;36.50;27.70;;;9.50;99.90;;;;;;5047109;28;20537;-52
2021/05/01 05:30:41;;;;;;;38.25;27.38;;;9.70;99.90;;;;;;5044674;28;20456;-51
2021/05/01 05:33:06;;;;;;;39.27;29.63;;;9.80;99.90;;;;;;5045898;28;20208;-52
2021/05/01 05:35:32;;;;;;;40.87;30.53;;;9.80;99.90;;;;;;5050210;28;20276;-52
2021/05/01 05:37:58;;;;;;;38.67;29.17;;;9.90;99.90;;;;;;5043386;28;20599;-51
2021/05/01 05:40:24;;;;;;;34.90;26.87;;;9.60;99.90;;;;;;5062277;28;20209;-51
2021/05/01 05:42:49;;;;;;;35.50;28.17;;;9.70;99.90;;;;;;5044194;28;20210;-51
2021/05/01 05:45:24;;;;;;;36.97;29.30;;;9.70;99.90;;;;;;5045192;28;20189;-50
2021/05/01 05:47:51;;;;;;;37.22;27.65;;;9.60;99.90;;;;;;5045837;28;20390;-50
2021/05/01 05:50:16;;;;;;;38.20;28.73;;;9.90;99.90;;;;;;5048173;28;20201;-51
2021/05/01 05:52:42;;;;;;;39.60;29.27;;;9.90;99.90;;;;;;5046337;28;20223;-52
2021/05/01 05:55:09;;;;;;;38.43;29.83;;;9.40;99.90;;;;;;5048075;28;20441;-52
2021/05/01 05:57:36;;;;;;;33.40;28.10;;;9.80;99.90;;;;;;5043639;28;21890;-52
2021/05/01 06:00:04;;;;;;;37.65;29.60;;;9.40;99.90;;;;;;5042750;28;20210;-52
2021/05/01 06:02:31;;;;;;;38.95;29.13;;;9.60;99.90;;;;;;5048497;28;20672;-52
2021/05/01 06:05:17;;;;;;;36.08;28.05;;;9.70;99.90;;;;;;5044375;28;20175;-53
2021/05/01 06:07:45;;;;;;;38.92;28.98;;;9.60;99.90;;;;;;5042955;28;20181;-52
2021/05/01 06:10:12;;;;;;;40.53;29.85;;;9.80;99.90;;;;;;5045534;28;20269;-53
2021/05/01 06:12:38;;;;;;;37.40;27.20;;;9.60;99.90;;;;;;5046637;28;20205;-53
2021/05/01 06:15:09;;;;;;;37.88;28.08;;;10.00;99.90;;;;;;5046655;28;20805;-54
2021/05/01 06:17:36;;;;;;;39.50;29.02;;;9.90;99.90;;;;;;5046744;28;20208;-52
2021/05/01 06:20:07;;;;;;;34.00;25.48;;;10.00;99.90;;;;;;5046518;28;20217;-53
2021/05/01 06:22:33;;;;;;;33.55;25.70;;;9.80;99.90;;;;;;5045783;28;20213;-51
2021/05/01 06:25:00;;;;;;;32.33;25.73;;;9.80;99.90;;;;;;5041207;28;20248;-52
2021/05/01 06:27:26;;;;;;;33.28;25.05;;;9.90;99.90;;;;;;5044784;28;20183;-53
2021/05/01 06:29:51;;;;;;;34.33;25.90;;;9.80;99.90;;;;;;5046963;28;20661;-52
2021/05/01 06:32:18;;;;;;;26.60;22.57;;;9.90;99.90;;;;;;5044499;28;20276;-52
2021/05/01 06:34:53;;;;;;;30.63;24.02;;;9.90;99.90;;;;;;5039020;28;20193;-53
2021/05/01 06:37:20;;;;;;;30.88;25.98;;;9.80;99.90;;;;;;5040997;28;20178;-51
2021/05/01 06:39:47;;;;;;;29.20;24.00;;;9.80;99.90;;;;;;5047190;28;20205;-52
2021/05/01 06:42:29;;;;;;;25.35;20.55;;;10.00;99.90;;;;;;5045506;28;20207;-53
2021/05/01 06:44:56;;;;;;;28.45;22.95;;;10.00;99.90;;;;;;5043489;28;20546;-53
2021/05/01 06:47:27;;;;;;;25.75;20.45;;;9.70;99.90;;;;;;5040903;28;20180;-52
2021/05/01 06:50:02;;;;;;;26.42;20.85;;;9.70;99.90;;;;;;5042984;28;20200;-53
2021/05/01 06:52:29;;;;;;;26.35;20.65;;;9.80;99.90;;;;;;5046027;28;20861;-51
2021/05/01 06:55:01;;;;;;;25.25;19.58;;;10.00;99.90;;;;;;5045625;28;20642;-53
2021/05/01 06:57:28;;;;;;;23.23;19.17;;;9.80;99.90;;;;;;5043634;28;20183;-52
2021/05/01 06:59:57;;;;;;;25.17;20.67;;;9.90;99.90;;;;;;5043679;28;20283;-52
2021/05/01 07:02:29;;;;;;;23.85;19.70;;;10.00;99.90;;;;;;5043184;28;20201;-52
2021/05/01 07:04:58;;;;;;;25.63;19.25;;;10.00;99.90;;;;;;5038546;28;20237;-51
2021/05/01 07:07:25;;;;;;;19.98;17.77;;;10.40;99.90;;;;;;5044146;28;20178;-52
2021/05/01 07:09:52;;;;;;;20.42;18.20;;;10.20;99.90;;;;;;5042898;28;20182;-51
2021/05/01 07:12:19;;;;;;;17.38;14.73;;;10.50;99.90;;;;;;5042160;28;20250;-52
2021/05/01 07:14:45;;;;;;;22.98;19.33;;;10.10;99.90;;;;;;5041600;28;20555;-51
2021/05/01 07:17:13;;;;;;;21.73;18.33;;;9.80;99.90;;;;;;5040390;28;20257;-52
2021/05/01 07:19:40;;;;;;;22.75;19.23;;;10.00;99.90;;;;;;5041502;28;20179;-54
2021/05/01 07:22:07;;;;;;;21.52;19.00;;;10.20;99.90;;;;;;5058008;28;20211;-54
2021/05/01 07:24:33;;;;;;;25.85;20.58;;;10.20;99.90;;;;;;5041635;28;20190;-50
2021/05/01 07:26:59;;;;;;;26.00;21.30;;;10.20;99.90;;;;;;5039528;28;20267;-52
2021/05/01 07:29:31;;;;;;;25.38;20.55;;;10.30;99.90;;;;;;5042584;28;20181;-52
2021/05/01 07:31:58;;;;;;;22.00;17.88;;;10.60;99.90;;;;;;5040275;28;20201;-53
2021/05/01 07:34:26;;;;;;;21.83;18.35;;;10.30;99.90;;;;;;5043517;28;20281;-54
2021/05/01 07:36:55;;;;;;;27.15;21.30;;;9.90;99.90;;;;;;5045846;28;20216;-54
2021/05/01 07:39:24;;;;;;;26.35;20.58;;;10.00;99.90;;;;;;5047348;28;20209;-54
2021/05/01 07:41:56;;;;;;;27.38;22.02;;;10.10;99.90;;;;;;5041793;28;20572;-54
2021/05/01 07:44:31;;;;;;;30.90;23.00;;;10.10;99.90;;;;;;5048214;28;20217;-54
2021/05/01 07:47:01;;;;;;;25.00;20.25;;;10.30;99.90;;;;;;5048183;28;20190;-51
2021/05/01 07:49:28;;;;;;;25.02;20.05;;;10.40;99.90;;;;;;5045030;28;20184;-52
2021/05/01 07:51:55;;;;;;;24.08;20.05;;;10.40;99.90;;;;;;5046701;28;20214;-52
2021/05/01 07:54:21;;;;;;;24.08;19.75;;;10.40;99.90;;;;;;5046981;28;20212;-52
2021/05/01 07:56:46;;;;;;;22.07;17.70;;;10.50;99.90;;;;;;5050363;28;20182;-53
2021/05/01 07:59:12;;;;;;;22.57;19.17;;;10.50;99.90;;;;;;5050820;28;20182;-53
2021/05/01 08:01:38;;;;;;;21.70;19.40;;;10.80;99.90;;;;;;5046372;28;20217;-53
2021/05/01 08:04:04;;;;;;;24.75;19.02;;;10.90;99.90;;;;;;5049105;28;20226;-53
2021/05/01 08:06:29;;;;;;;21.87;19.33;;;10.70;99.90;;;;;;5048288;28;20186;-53
2021/05/01 08:08:56;;;;;;;20.53;16.90;;;11.10;99.90;;;;;;5047734;28;20635;-53
2021/05/01 08:11:23;;;;;;;21.58;17.90;;;11.00;99.90;;;;;;5046162;28;20217;-53
2021/05/01 08:13:49;;;;;;;27.40;21.67;;;10.70;99.90;;;;;;5045213;28;20202;-53
2021/05/01 08:16:15;;;;;;;21.43;19.10;;;10.90;99.90;;;;;;5046265;28;20189;-52
2021/05/01 08:18:42;;;;;;;21.20;17.60;;;10.70;99.90;;;;;;5046290;28;20259;-52
2021/05/01 08:21:08;;;;;;;20.92;17.30;;;10.60;99.90;;;;;;5048293;28;20206;-53
2021/05/01 08:23:34;;;;;;;21.98;17.60;;;10.70;99.90;;;;;;5046640;28;20197;-51
2021/05/01 08:26:04;;;;;;;21.00;17.58;;;11.00;99.90;;;;;;5049276;28;20673;-53
2021/05/01 08:28:30;;;;;;;21.38;17.75;;;10.80;99.90;;;;;;5061766;28;20669;-53
2021/05/01 08:30:56;;;;;;;21.50;18.75;;;10.50;99.90;;;;;;5043984;28;20218;-53
2021/05/01 08:33:22;;;;;;;23.10;18.77;;;10.70;99.90;;;;;;5043368;28;20668;-52
2021/05/01 08:35:48;;;;;;;20.87;18.17;;;10.80;99.90;;;;;;5044330;28;20187;-50
2021/05/01 08:38:14;;;;;;;21.53;17.73;;;11.00;99.90;;;;;;5041899;28;20423;-50
2021/05/01 08:40:40;;;;;;;21.02;16.95;;;10.60;99.90;;;;;;5045330;28;20471;-53
2021/05/01 08:43:06;;;;;;;20.60;17.77;;;10.90;99.90;;;;;;5045899;28;20206;-52
2021/05/01 08:45:32;;;;;;;22.15;18.10;;;10.60;99.90;;;;;;5042792;28;20251;-50
2021/05/01 08:48:02;;;;;;;21.45;18.38;;;10.60;99.90;;;;;;5055356;28;20183;-51
2021/05/01 08:50:31;;;;;;;20.02;17.15;;;10.80;99.90;;;;;;5043024;28;20274;-50
2021/05/01 08:52:58;;;;;;;20.48;18.05;;;10.50;99.90;;;;;;5045353;28;20242;-52
2021/05/01 08:55:27;;;;;;;20.65;17.52;;;10.60;99.90;;;;;;5038195;28;20183;-53
2021/05/01 08:57:54;;;;;;;20.52;17.83;;;10.90;99.90;;;;;;5044696;28;20192;-51
2021/05/01 09:00:22;;;;;;;20.05;17.95;;;10.90;99.90;;;;;;5055685;28;20207;-52
2021/05/01 09:02:49;;;;;;;18.00;15.95;;;11.10;99.90;;;;;;5043207;28;20756;-52
2021/05/01 09:05:15;;;;;;;17.75;15.85;;;11.30;99.90;;;;;;5036181;28;20187;-52
2021/05/01 09:07:43;;;;;;;23.63;17.63;;;11.40;99.90;;;;;;5044751;28;20181;-52
2021/05/01 09:10:10;;;;;;;22.98;19.15;;;11.30;99.90;;;;;;5042882;28;20194;-51
2021/05/01 09:12:45;;;;;;;21.83;18.23;;;10.60;99.90;;;;;;5044067;28;20218;-51
2021/05/01 09:15:12;;;;;;;21.90;18.30;;;11.20;99.90;;;;;;5043345;28;20185;-51
2021/05/01 09:17:39;;;;;;;20.48;18.08;;;11.30;99.90;;;;;;5042292;28;20527;-53
2021/05/01 09:20:11;;;;;;;25.95;19.88;;;11.50;99.90;;;;;;5043995;28;20668;-52
2021/05/01 09:22:57;;;;;;;19.35;17.25;;;11.80;99.90;;;;;;5041295;28;20208;-52
2021/05/01 09:25:28;;;;;;;19.63;17.58;;;12.00;99.90;;;;;;5054485;28;20219;-52
2021/05/01 09:28:21;;;;;;;24.70;20.52;;;12.10;99.30;;;;;;5059638;28;20270;-51
2021/05/01 09:31:06;;;;;;;20.95;18.30;;;12.30;99.80;;;;;;5040019;28;20212;-52
2021/05/01 09:33:33;;;;;;;19.10;16.25;;;12.20;99.10;;;;;;5043447;28;20300;-52
2021/05/01 09:36:08;;;;;;;21.08;17.83;;;12.40;98.00;;;;;;5042768;28;20183;-52
2021/05/01 09:38:48;;;;;;;17.70;15.70;;;12.40;98.00;;;;;;5040678;28;20671;-50
2021/05/01 09:41:37;;;;;;;18.80;16.75;;;12.00;98.10;;;;;;5042599;28;20207;-51
2021/05/01 09:44:11;;;;;;;18.33;16.25;;;12.00;98.00;;;;;;5054491;28;20231;-53
2021/05/01 09:46:43;;;;;;;19.45;16.70;;;12.00;98.20;;;;;;5042554;28;20234;-51
2021/05/01 09:49:19;;;;;;;19.58;15.90;;;11.90;98.60;;;;;;5037283;28;20175;-51
2021/05/01 09:51:58;;;;;;;19.58;17.20;;;12.10;98.50;;;;;;5043195;28;20573;-51
2021/05/01 09:54:34;;;;;;;18.85;15.88;;;12.30;99.10;;;;;;5041361;28;20199;-51
2021/05/01 09:57:11;;;;;;;19.67;17.20;;;12.20;98.40;;;;;;5043508;28;20194;-52
2021/05/01 09:59:40;;;;;;;20.25;17.88;;;12.50;98.30;;;;;;5042210;28;20187;-52
2021/05/01 10:02:09;;;;;;;18.25;16.45;;;12.50;98.00;;;;;;5040961;28;20205;-51
2021/05/01 10:04:34;;;;;;;20.33;17.92;;;12.70;97.80;;;;;;5057784;28;20548;-53
2021/05/01 10:07:12;;;;;;;22.10;17.57;;;12.80;97.10;;;;;;5044597;28;20522;-52
2021/05/01 10:09:42;;;;;;;18.90;16.98;;;13.40;96.00;;;;;;5040292;28;20268;-52
2021/05/01 10:12:14;;;;;;;19.85;17.75;;;13.70;95.60;;;;;;5039462;28;20351;-52
2021/05/01 10:14:53;;;;;;;23.60;17.70;;;13.10;94.60;;;;;;5057660;28;20220;-50
2021/05/01 10:17:23;;;;;;;18.55;16.65;;;13.20;95.40;;;;;;5042130;28;20218;-52
2021/05/01 10:20:02;;;;;;;18.85;16.40;;;13.60;95.10;;;;;;5042631;28;20280;-57
2021/05/01 10:22:43;;;;;;;20.75;16.95;;;13.60;94.80;;;;;;5038963;28;20668;-52
2021/05/01 10:25:17;;;;;;;19.13;17.02;;;14.10;93.10;;;;;;5039856;28;20177;-51
2021/05/01 10:28:06;;;;;;;19.15;16.90;;;14.50;92.80;;;;;;5042869;28;20201;-52
2021/05/01 10:33:17;;;;;;;20.65;17.95;;;14.20;92.00;;;;;;5043819;28;22947;-52
2021/05/01 10:35:58;;;;;;;19.95;17.92;;;13.90;93.00;;;;;;5042525;28;20181;-51
2021/05/01 10:38:24;;;;;;;21.60;19.10;;;13.90;93.80;;;;;;5038410;28;20235;-52
2021/05/01 10:40:58;;;;;;;22.10;18.75;;;14.00;94.00;;;;;;5041304;28;20218;-52
2021/05/01 10:43:37;;;;;;;23.10;20.60;;;13.70;94.10;;;;;;5041067;28;20211;-52
2021/05/01 10:46:06;;;;;;;18.58;16.58;;;13.80;94.00;;;;;;5055617;28;20185;-51
2021/05/01 10:48:52;;;;;;;17.80;15.93;;;13.90;92.80;;;;;;5033486;28;20193;-51
2021/05/01 10:51:21;;;;;;;19.83;17.35;;;14.50;91.80;;;;;;5043176;28;20338;-52
2021/05/01 10:53:50;;;;;;;21.95;19.58;;;14.30;92.10;;;;;;5040684;28;20304;-53
2021/05/01 10:56:26;;;;;;;24.48;20.30;;;14.10;92.00;;;;;;5042883;28;20212;-51
2021/05/01 10:58:53;;;;;;;20.70;18.52;;;14.40;92.50;;;;;;5038572;28;20195;-52
2021/05/01 11:01:49;;;;;;;20.80;18.60;;;14.70;91.90;;;;;;5038510;28;20648;-52
2021/05/01 11:04:29;;;;;;;20.88;18.50;;;14.10;92.10;;;;;;5044131;28;20399;-52
2021/05/01 11:07:03;;;;;;;19.77;17.60;;;13.60;92.40;;;;;;5044267;28;20264;-52
2021/05/01 11:09:41;;;;;;;24.63;21.88;;;13.80;93.10;;;;;;5042813;28;20203;-53
2021/05/01 11:12:12;;;;;;;22.92;20.38;;;13.80;93.60;;;;;;5040349;28;20715;-52
2021/05/01 11:14:47;;;;;;;23.45;20.98;;;13.60;94.10;;;;;;5043775;28;20182;-51
2021/05/01 11:17:29;;;;;;;23.75;20.85;;;13.30;94.90;;;;;;5059985;28;20184;-51
2021/05/01 11:20:01;;;;;;;22.90;20.38;;;13.70;95.30;;;;;;5046675;28;20212;-52
2021/05/01 11:22:27;;;;;;;22.15;19.85;;;13.50;95.20;;;;;;5046493;28;20671;-52
2021/05/01 11:24:54;;;;;;;25.30;21.53;;;13.90;95.10;;;;;;5046009;28;20227;-51
2021/05/01 11:27:20;;;;;;;24.33;21.55;;;14.00;95.40;;;;;;5040807;28;20524;-52
2021/05/01 11:29:46;;;;;;;26.93;22.20;;;13.10;96.10;;;;;;5046053;28;20687;-52
2021/05/01 11:32:12;;;;;;;23.60;21.10;;;13.00;97.00;;;;;;5043097;28;20842;-53
2021/05/01 11:34:39;;;;;;;23.67;20.92;;;13.10;98.30;;;;;;5046076;28;20184;-54
2021/05/01 11:37:07;;;;;;;24.65;21.67;;;13.40;97.70;;;;;;5043802;28;20224;-50
2021/05/01 11:39:38;;;;;;;25.17;20.45;;;13.20;97.90;;;;;;5044161;28;20190;-53
2021/05/01 11:42:04;;;;;;;23.30;20.65;;;13.60;97.40;;;;;;5039995;28;20231;-53
2021/05/01 11:44:30;;;;;;;24.10;20.25;;;13.70;97.40;;;;;;5047416;28;20181;-52
2021/05/01 11:47:04;;;;;;;23.40;20.90;;;13.80;96.70;;;;;;5045859;28;20644;-53
2021/05/01 11:49:30;;;;;;;21.85;18.67;;;13.60;97.10;;;;;;5039612;28;20193;-52
2021/05/01 11:52:24;;;;;;;22.55;20.15;;;14.00;95.40;;;;;;5042604;28;20193;-51
2021/05/01 11:55:14;;;;;;;21.45;19.25;;;14.00;95.70;;;;;;5046578;28;20673;-51
2021/05/01 11:57:54;;;;;;;23.58;20.48;;;14.20;95.60;;;;;;5062276;28;20185;-52
2021/05/01 12:00:40;;;;;;;22.95;20.38;;;13.90;95.20;;;;;;5046870;28;20201;-52
2021/05/01 12:03:26;;;;;;;22.65;20.25;;;14.30;95.50;;;;;;5043702;28;20201;-51
2021/05/01 12:05:59;;;;;;;22.83;20.02;;;14.10;95.20;;;;;;5034428;28;20382;-52
2021/05/01 12:08:26;;;;;;;23.23;20.05;;;14.30;94.90;;;;;;5040106;28;20198;-52
2021/05/01 12:10:55;;;;;;;24.13;19.52;;;14.10;94.50;;;;;;5048449;28;20279;-51
2021/05/01 12:13:30;;;;;;;23.35;20.20;;;14.20;95.20;;;;;;5036647;28;20205;-51
2021/05/01 12:15:58;;;;;;;25.80;21.02;;;13.60;96.30;;;;;;5042532;28;20512;-52
2021/05/01 12:18:52;;;;;;;22.95;19.50;;;14.10;95.50;;;;;;5047842;28;20675;-50
2021/05/01 12:21:19;;;;;;;23.63;21.05;;;13.90;95.80;;;;;;5059982;28;20221;-50
2021/05/01 12:23:53;;;;;;;20.67;18.48;;;13.90;96.00;;;;;;5044502;28;20679;-53
2021/05/01 12:26:35;;;;;;;23.60;20.55;;;13.70;95.80;;;;;;5041343;28;20182;-53
2021/05/01 12:29:22;;;;;;;24.15;21.52;;;13.80;95.00;;;;;;5044916;28;20684;-52
2021/05/01 12:31:49;;;;;;;24.20;21.15;;;13.50;95.10;;;;;;5058837;28;20198;-52
2021/05/01 12:34:16;;;;;;;25.85;21.15;;;13.80;95.50;;;;;;5041231;28;20327;-53
2021/05/01 12:36:50;;;;;;;23.95;20.90;;;13.90;95.00;;;;;;5047941;28;20190;-52
2021/05/01 12:39:17;;;;;;;22.88;20.42;;;14.30;95.00;;;;;;5048016;28;20189;-53
2021/05/01 12:41:46;;;;;;;24.13;21.45;;;14.30;94.70;;;;;;5044281;28;20217;-53
2021/05/01 12:44:32;;;;;;;22.35;19.95;;;14.30;94.40;;;;;;5045359;28;20273;-52